DW4662 Weather Reports


Display with metric or nautical units.
time (UTC)temp
F
wind
direction
speed
MPH
gust
MPH
rain 1hr
in
rain 24hr
in
rain mn
in
humidity
%
barometer
mb
20190922012512 44 63 0.0 0.0 0.00 0.00 0.00 87 1013.9
20190922011512 44 63 0.0 0.0 0.00 0.00 0.00 87 1014.0
20190922010512 44 63 0.0 0.0 0.00 0.00 0.00 87 1014.0
20190922005512 44 63 0.0 0.0 0.00 0.00 0.00 87 1014.0
20190922004512 44 63 0.0 0.0 0.00 0.00 0.00 87 1014.1
20190922002512 44 63 0.0 0.0 0.00 0.00 0.00 87 1014.2
20190922000512 45 63 0.0 0.0 0.00 0.00 0.00 87 1014.5
20190921232512 45 63 0.0 0.0 0.00 0.00 0.00 84 1014.5
20190921225512 46 63 0.0 0.0 0.00 0.00 0.00 83 1014.6
20190921215513 48 63 0.0 0.0 0.00 0.00 0.00 82 1015.2
20190921212512 49 63 0.0 0.0 0.00 0.00 0.00 80 1015.8
20190921211513 49 63 0.0 0.0 0.00 0.00 0.00 80 1015.9
20190921210513 49 63 0.0 0.0 0.00 0.00 0.00 80 1016.1
20190921205512 50 63 0.0 0.0 0.00 0.00 0.00 80 1016.1
20190921204513 50 63 0.0 0.0 0.00 0.00 0.00 79 1016.1
20190921192512 54 63 0.0 0.0 0.00 0.00 0.00 74 1016.2
20190921191512 55 63 0.0 0.0 0.00 0.00 0.00 73 1016.3
20190921190515 55 63 0.0 0.0 0.00 0.00 0.00 72 1016.3
20190921184512 56 63 0.0 2.0 0.00 0.00 0.00 70 1016.2
20190921183513 57 63 0.0 0.0 0.00 0.00 0.00 70 1016.2
20190921182512 58 63 0.0 0.0 0.00 0.00 0.00 69 1016.2
20190921181513 59 63 0.0 0.0 0.00 0.00 0.00 68 1016.1
20190921180514 59 63 0.0 3.0 0.00 0.00 0.00 66 1016.2
20190921175512 60 63 0.0 0.0 0.00 0.00 0.00 65 1016.2
20190921171513 64 63 0.0 2.0 0.00 0.00 0.00 60 1016.5
20190921165512 65 63 1.0 4.0 0.00 0.00 0.00 59 1016.3
20190921164513 65 65 1.0 4.0 0.00 0.00 0.00 58 1016.5
20190921163511 66 65 4.0 8.0 0.00 0.00 0.00 57 1016.4
20190921162513 66 57 0.0 7.0 0.00 0.00 0.00 57 1016.5
20190921160512 67 68 4.0 7.0 0.00 0.00 0.00 56 1016.5
20190921152513 67 69 5.0 9.0 0.00 0.00 0.00 54 1017.0
20190921151513 68 65 5.0 9.0 0.00 0.00 0.00 52 1017.1
20190921150513 68 59 7.0 9.0 0.00 0.00 0.00 52 1017.2
20190921145512 69 67 2.0 8.0 0.00 0.00 0.00 53 1017.4
20190921141512 70 69 2.0 10.0 0.00 0.00 0.00 50 1017.7
20190921132512 69 98 1.0 8.0 0.00 0.00 0.00 53 1018.2
20190921131512 69 60 4.0 9.0 0.00 0.00 0.00 50 1018.3
20190921130512 69 53 1.0 9.0 0.00 0.00 0.00 53 1018.6
20190921124511 69 51 2.0 8.0 0.00 0.00 0.00 53 1018.7
20190921123512 69 84 4.0 7.0 0.00 0.00 0.00 52 1019.0
20190921122513 68 120 3.0 7.0 0.00 0.00 0.00 53 1019.2
20190921121512 68 82 3.0 8.0 0.00 0.00 0.00 53 1019.2
20190921120512 67 5 2.0 7.0 0.00 0.00 0.00 56 1019.5
20190921115512 67 72 5.0 11.0 0.00 0.00 0.00 53 1019.6
20190921114513 67 311 4.0 7.0 0.00 0.00 0.00 55 1019.7
20190921112512 67 344 0.0 4.0 0.00 0.00 0.00 55 1020.0
20190921105515 67 265 0.0 2.0 0.00 0.00 0.00 58 1020.5
20190921101512 65 242 1.0 6.0 0.00 0.00 0.00 58 1021.1
20190921095511 63 244 0.0 4.0 0.00 0.00 0.00 61 1021.2
20190921091518 58 246 0.0 2.0 0.00 0.00 0.00 64 1021.5
20190921090512 57 242 0.0 0.0 0.00 0.00 0.00 67 1021.7
20190921085512 55 242 0.0 1.0 0.00 0.00 0.00 69 1022.0
20190921084512 53 242 0.0 5.0 0.00 0.00 0.00 72 1021.9
20190921082512 48 49 0.0 2.0 0.00 0.00 0.00 80 1021.9
20190921081512 47 41 0.0 0.0 0.00 0.00 0.00 82 1022.0
20190921080512 45 41 0.0 1.0 0.00 0.00 0.00 83 1022.1
20190921072514 43 41 0.0 0.0 0.00 0.00 0.00 85 1022.4
20190921070512 41 41 0.0 0.0 0.00 0.00 0.00 87 1022.4
20190921064512 40 41 0.0 0.0 0.00 0.00 0.00 88 1022.3
20190921063512 40 41 0.0 0.0 0.00 0.00 0.00 88 1022.1
20190921062511 40 41 0.0 3.0 0.00 0.00 0.00 88 1022.0
20190921061511 39 42 0.0 5.0 0.00 0.00 0.00 88 1022.0
20190921060512 38 36 1.0 7.0 0.00 0.00 0.00 88 1022.0
20190921055511 37 53 1.0 5.0 0.00 0.00 0.00 87 1021.9
20190921053511 37 56 0.0 4.0 0.00 0.00 0.00 86 1022.1
20190921052513 37 56 0.0 2.0 0.00 0.00 0.00 86 1022.2
20190921044512 37 56 0.0 0.0 0.00 0.00 0.00 85 1022.0
20190921043511 37 56 0.0 0.0 0.00 0.00 0.00 84 1022.0
20190921042512 37 56 0.0 0.0 0.00 0.00 0.00 84 1022.0
20190921041511 38 56 0.0 0.0 0.00 0.00 0.00 85 1022.1
20190921040513 38 56 0.0 0.0 0.00 0.00 0.00 84 1022.2
20190921035512 38 56 0.0 0.0 0.00 0.00 0.00 84 1022.2
20190921032511 39 56 0.0 0.0 0.00 0.00 0.00 84 1022.1
20190921025512 39 56 0.0 0.0 0.00 0.00 0.00 84 1022.2
20190921023512 40 56 0.0 0.0 0.00 0.00 0.00 84 1022.2
20190921021512 40 56 0.0 3.0 0.00 0.00 0.00 84 1022.4
20190921020513 40 56 1.0 5.0 0.00 0.00 0.00 84 1022.4
20190921015512 40 57 0.0 0.0 0.00 0.00 0.00 84 1022.5
20190921014514 40 57 0.0 2.0 0.00 0.00 0.00 83 1022.5
20190921013512 40 57 0.0 0.0 0.00 0.00 0.00 83 1022.7